Time;durP1;ratioP1;P1;durP2;ratioP2;P2;SDS_P1;SDS_P2;PMS_P1;PMS_P2;Temp;Humidity;BMP_temperature;BMP_pressure;BME280_temperature;BME280_humidity;BME280_pressure;Samples;Min_cycle;Max_cycle;Signal;HPM_P1;HPM_P2
2023/12/28 00:00:44;;;;;;;5.18;3.40;;;;;;;12.65;82.00;100351.59;4986684;28;20043;-82
2023/12/28 00:03:21;;;;;;;5.57;3.47;;;;;;;12.42;82.39;100345.53;4991095;28;20074;-82
2023/12/28 00:06:05;;;;;;;5.30;3.30;;;;;;;12.44;82.58;100357.50;4988796;28;20050;-82
2023/12/28 00:08:33;;;;;;;6.13;3.30;;;;;;;12.44;82.57;100348.81;4982884;28;20061;-82
2023/12/28 00:11:03;;;;;;;5.90;3.50;;;;;;;12.48;83.02;100352.72;4987467;28;20043;-82
2023/12/28 00:13:30;;;;;;;6.38;3.60;;;;;;;12.64;82.60;100363.09;4991353;28;20051;-82
2023/12/28 00:15:57;;;;;;;4.70;3.22;;;;;;;12.32;82.82;100361.50;4992046;28;20102;-83
2023/12/28 00:18:23;;;;;;;4.65;3.30;;;;;;;12.45;82.73;100360.94;4990296;28;20453;-82
2023/12/28 00:20:50;;;;;;;7.63;3.35;;;;;;;12.38;82.70;100365.25;4991549;28;20498;-82
2023/12/28 00:23:17;;;;;;;4.20;3.28;;;;;;;12.32;83.36;100371.19;4989392;28;20622;-82
2023/12/28 00:25:45;;;;;;;6.53;3.55;;;;;;;12.37;83.37;100358.34;4992748;28;20081;-82
2023/12/28 00:28:12;;;;;;;4.93;3.17;;;;;;;12.57;83.17;100370.84;4991037;28;20592;-81
2023/12/28 00:30:39;;;;;;;4.47;3.20;;;;;;;12.32;83.46;100365.94;4990540;28;20054;-81
2023/12/28 00:33:07;;;;;;;4.68;2.95;;;;;;;12.45;83.40;100350.44;4991235;28;20055;-82
2023/12/28 00:35:37;;;;;;;4.70;3.20;;;;;;;12.32;83.51;100344.94;4991684;28;20133;-80
2023/12/28 00:38:08;;;;;;;4.10;3.33;;;;;;;12.30;83.93;100337.25;4990323;28;20055;-82
2023/12/28 00:40:35;;;;;;;3.28;2.80;;;;;;;12.27;83.91;100374.34;4991971;28;20106;-82
2023/12/28 00:43:07;;;;;;;3.28;2.97;;;;;;;12.41;84.13;100354.41;4991261;28;20047;-82
2023/12/28 00:45:35;;;;;;;3.80;3.08;;;;;;;12.11;84.65;100364.75;4989201;28;20058;-82
2023/12/28 00:50:43;;;;;;;5.03;3.35;;;;;;;12.24;84.72;100390.44;4987645;28;20054;-83
2023/12/28 00:53:12;;;;;;;4.97;3.10;;;;;;;12.41;84.31;100373.59;4991476;28;20042;-83
2023/12/28 00:55:39;;;;;;;3.60;3.03;;;;;;;12.23;84.54;100380.94;4987520;28;20122;-82
2023/12/28 00:58:10;;;;;;;3.50;3.08;;;;;;;12.34;84.39;100375.25;4987502;28;20153;-83
2023/12/28 01:00:39;;;;;;;4.53;3.42;;;;;;;12.39;84.12;100387.88;4986421;28;20047;-84
2023/12/28 01:03:06;;;;;;;5.82;3.55;;;;;;;12.59;83.66;100389.06;4986492;28;20084;-83
2023/12/28 01:05:40;;;;;;;6.30;3.60;;;;;;;12.39;83.89;100396.56;4988594;28;20055;-82
2023/12/28 01:08:07;;;;;;;4.28;3.28;;;;;;;12.48;83.90;100395.53;4986334;28;20076;-81
2023/12/28 01:13:42;;;;;;;3.80;3.20;;;;;;;12.18;83.90;100373.56;4984761;28;20161;-82
2023/12/28 01:16:09;;;;;;;5.57;3.30;;;;;;;12.44;84.00;100406.53;4988560;28;20110;-82
2023/12/28 01:18:41;;;;;;;4.43;3.40;;;;;;;12.56;83.99;100407.78;4986545;28;20113;-82
2023/12/28 01:21:08;;;;;;;4.70;3.03;;;;;;;12.46;84.05;100404.56;4984329;28;20125;-81
2023/12/28 01:23:46;;;;;;;5.57;3.28;;;;;;;12.34;83.81;100382.31;4983974;28;20192;-82
2023/12/28 01:26:41;;;;;;;4.85;3.20;;;;;;;12.45;83.93;100397.66;4961000;28;20055;-82
2023/12/28 01:29:19;;;;;;;4.53;3.22;;;;;;;12.52;84.13;100423.06;4977860;28;20062;-83
2023/12/28 01:32:20;;;;;;;6.00;3.20;;;;;;;12.48;84.29;100400.75;4987933;28;20062;-82
2023/12/28 01:34:51;;;;;;;5.03;3.42;;;;;;;12.60;84.01;100407.25;4974079;28;20129;-83
2023/12/28 01:37:20;;;;;;;4.47;3.30;;;;;;;12.50;84.23;100418.97;4986631;28;20068;-82
2023/12/28 01:39:47;;;;;;;5.60;3.40;;;;;;;12.53;84.32;100423.88;4984517;28;20055;-83
2023/12/28 01:42:13;;;;;;;4.22;3.08;;;;;;;12.55;84.12;100419.25;4984555;28;20074;-83
2023/12/28 01:44:52;;;;;;;3.85;2.92;;;;;;;12.57;84.27;100420.72;4985970;28;20125;-83
2023/12/28 01:47:24;;;;;;;4.63;3.50;;;;;;;12.52;84.75;100424.84;4978078;28;20063;-83
2023/12/28 01:49:53;;;;;;;5.38;3.38;;;;;;;12.42;84.68;100425.06;4985124;28;20054;-83
2023/12/28 01:58:27;;;;;;;5.10;3.88;;;;;;;12.51;85.90;100452.09;4974393;28;20403;-83
2023/12/28 02:01:28;;;;;;;6.35;3.80;;;;;;;12.49;85.44;100435.69;4984652;28;20255;-83
2023/12/28 02:03:56;;;;;;;5.05;3.85;;;;;;;12.27;86.07;100456.50;4917444;29;20056;-82
2023/12/28 02:06:24;;;;;;;7.03;3.80;;;;;;;12.47;85.79;100464.75;4977807;28;20047;-82
2023/12/28 02:08:50;;;;;;;5.05;3.75;;;;;;;12.49;85.57;100447.00;4988249;28;20081;-82
2023/12/28 02:11:17;;;;;;;6.18;4.15;;;;;;;12.35;85.88;100439.06;4989363;28;20058;-82
2023/12/28 02:13:44;;;;;;;5.20;3.75;;;;;;;12.43;86.23;100449.50;4988337;28;20043;-83
2023/12/28 02:16:16;;;;;;;5.00;3.80;;;;;;;12.46;85.95;100463.09;4981230;28;20047;-83
2023/12/28 02:18:44;;;;;;;6.25;3.75;;;;;;;12.37;86.40;100463.31;4987170;28;20051;-83
2023/12/28 02:21:13;;;;;;;6.22;3.72;;;;;;;12.49;85.91;100451.44;4979548;28;20054;-82
2023/12/28 02:23:40;;;;;;;7.50;4.07;;;;;;;12.49;85.71;100449.63;4987091;28;20051;-82
2023/12/28 02:26:08;;;;;;;6.10;3.92;;;;;;;12.61;85.69;100455.31;4988134;28;20074;-84
2023/12/28 02:28:35;;;;;;;5.97;3.78;;;;;;;12.77;84.83;100449.13;4989639;28;20078;-84
2023/12/28 02:31:06;;;;;;;4.88;3.65;;;;;;;12.43;84.93;100452.13;4988665;28;20047;-83
2023/12/28 02:33:42;;;;;;;5.00;3.80;;;;;;;12.47;85.59;100463.94;4986342;28;20078;-82
2023/12/28 02:36:11;;;;;;;6.43;3.88;;;;;;;12.66;85.08;100458.25;4985149;28;20059;-82
2023/12/28 02:38:39;;;;;;;3.92;3.40;;;;;;;12.54;85.46;100463.06;4981830;28;20161;-79
2023/12/28 02:41:09;;;;;;;5.63;3.92;;;;;;;12.67;84.91;100457.25;4979904;28;20150;-80
2023/12/28 02:43:35;;;;;;;5.07;3.85;;;;;;;12.47;85.60;100477.88;4980106;28;20078;-80
2023/12/28 02:46:02;;;;;;;6.53;3.97;;;;;;;12.66;84.77;100454.81;4978857;28;20122;-80
2023/12/28 02:48:29;;;;;;;5.57;4.18;;;;;;;12.43;85.11;100473.13;4977788;28;20078;-80
2023/12/28 02:50:55;;;;;;;5.70;3.42;;;;;;;12.49;84.71;100467.19;4980978;28;20086;-82
2023/12/28 02:53:22;;;;;;;5.78;3.80;;;;;;;12.61;84.79;100471.06;4982759;28;20094;-82
2023/12/28 02:55:48;;;;;;;5.00;3.45;;;;;;;12.65;84.68;100461.88;4982679;28;20046;-80
2023/12/28 02:58:16;;;;;;;4.60;3.60;;;;;;;12.73;84.25;100446.06;4980779;28;20054;-81
2023/12/28 03:00:43;;;;;;;5.13;3.38;;;;;;;12.53;83.79;100431.75;5009034;23;20133;-79
2023/12/28 03:03:10;;;;;;;5.15;3.58;;;;;;;12.56;83.93;100455.84;5016518;28;20065;-80
2023/12/28 03:05:36;;;;;;;4.30;3.15;;;;;;;12.54;84.28;100454.38;5017290;28;20298;-79
2023/12/28 03:08:03;;;;;;;4.90;3.22;;;;;;;12.37;84.85;100461.50;5016093;28;20087;-79
2023/12/28 03:10:30;;;;;;;3.65;3.15;;;;;;;12.49;84.57;100449.63;5016919;28;20137;-80
2023/12/28 03:12:57;;;;;;;5.20;3.47;;;;;;;12.64;84.45;100447.09;5015203;28;20069;-79
2023/12/28 03:15:25;;;;;;;4.45;3.20;;;;;;;12.59;84.24;100439.75;5013798;28;20133;-77
2023/12/28 03:17:54;;;;;;;5.35;3.58;;;;;;;12.45;84.62;100429.16;5012486;28;20595;-78
2023/12/28 03:20:21;;;;;;;5.78;3.30;;;;;;;12.16;85.67;100441.13;5013669;28;20506;-78
2023/12/28 03:22:50;;;;;;;4.13;3.05;;;;;;;12.29;85.77;100443.19;5012000;28;20050;-78
2023/12/28 03:25:16;;;;;;;3.95;3.28;;;;;;;12.39;85.44;100442.97;5013463;28;20554;-78
2023/12/28 03:27:43;;;;;;;5.75;3.28;;;;;;;12.27;85.48;100446.00;5012563;28;20160;-78
2023/12/28 03:30:11;;;;;;;4.47;3.30;;;;;;;12.24;85.57;100463.88;5012683;28;20575;-79
2023/12/28 03:32:39;;;;;;;6.15;3.70;;;;;;;12.20;85.46;100458.16;5013124;28;20181;-79
2023/12/28 03:35:07;;;;;;;4.82;3.67;;;;;;;12.26;85.36;100456.66;5013591;28;20472;-78
2023/12/28 03:37:33;;;;;;;4.97;3.60;;;;;;;12.30;85.24;100456.13;5015273;28;20113;-78
2023/12/28 03:40:00;;;;;;;4.70;3.38;;;;;;;12.25;85.15;100457.66;5008490;28;20133;-79
2023/12/28 03:42:27;;;;;;;5.32;3.60;;;;;;;12.05;85.62;100452.00;5012988;28;20052;-79
2023/12/28 03:44:53;;;;;;;6.07;3.90;;;;;;;12.07;85.32;100446.56;5013515;28;20129;-78
2023/12/28 03:47:20;;;;;;;4.43;3.22;;;;;;;12.06;85.80;100461.50;5013083;28;20133;-78
2023/12/28 03:49:48;;;;;;;5.10;3.40;;;;;;;12.21;84.75;100449.31;5016568;28;20137;-79
2023/12/28 03:52:14;;;;;;;5.75;3.80;;;;;;;12.01;85.05;100448.06;5017369;28;20136;-79
2023/12/28 03:54:41;;;;;;;6.60;3.67;;;;;;;12.02;84.81;100438.41;5016281;28;20133;-78
2023/12/28 03:57:07;;;;;;;4.93;3.50;;;;;;;12.06;84.76;100434.44;5016188;28;20077;-78
2023/12/28 03:59:34;;;;;;;4.88;3.42;;;;;;;12.32;84.36;100445.47;5016252;28;20052;-79
2023/12/28 04:02:01;;;;;;;5.28;3.58;;;;;;;12.08;84.22;100448.22;5016456;28;20097;-78
2023/12/28 04:04:27;;;;;;;4.82;3.42;;;;;;;11.91;84.60;100439.56;5015754;28;20448;-78
2023/12/28 04:06:57;;;;;;;7.25;3.60;;;;;;;12.06;84.53;100450.19;5015973;28;20156;-79
2023/12/28 04:09:24;;;;;;;5.50;3.22;;;;;;;11.79;84.16;100426.03;5012349;28;20053;-79
2023/12/28 04:11:50;;;;;;;5.70;3.47;;;;;;;11.51;86.37;100440.47;5016417;28;20060;-79
2023/12/28 04:14:17;;;;;;;5.28;3.70;;;;;;;11.75;85.30;100437.81;5016393;28;20081;-78
2023/12/28 04:16:43;;;;;;;7.38;3.60;;;;;;;11.88;84.85;100432.03;5015443;28;20114;-79
2023/12/28 04:19:10;;;;;;;4.20;3.00;;;;;;;12.05;83.96;100419.69;5016695;28;20133;-79
2023/12/28 04:21:37;;;;;;;3.55;3.20;;;;;;;11.84;84.06;100425.50;5017435;28;20117;-79
2023/12/28 04:24:05;;;;;;;4.55;3.20;;;;;;;11.95;83.72;100418.09;5017773;28;20223;-79
2023/12/28 04:26:33;;;;;;;3.58;3.08;;;;;;;11.84;83.89;100430.75;5019401;28;20081;-79
2023/12/28 04:29:00;;;;;;;5.32;3.55;;;;;;;11.71;84.25;100440.94;5016051;28;20053;-78
2023/12/28 04:31:27;;;;;;;5.38;3.55;;;;;;;11.49;84.99;100439.81;5013939;28;20526;-78
2023/12/28 04:33:53;;;;;;;7.95;4.30;;;;;;;11.25;86.20;100457.22;5014544;28;20520;-78
2023/12/28 04:36:20;;;;;;;7.32;3.85;;;;;;;11.06;86.98;100446.25;5013371;28;20052;-78
2023/12/28 04:38:46;;;;;;;5.90;3.92;;;;;;;11.02;87.72;100455.41;5012494;28;20056;-78
2023/12/28 04:41:14;;;;;;;4.40;3.47;;;;;;;11.11;87.62;100449.19;5014856;28;20137;-78
2023/12/28 04:43:41;;;;;;;5.25;3.50;;;;;;;10.73;88.83;100461.94;5014735;28;20136;-78
2023/12/28 04:46:07;;;;;;;5.40;3.63;;;;;;;10.80;89.21;100460.31;5014807;28;20567;-79
2023/12/28 04:48:35;;;;;;;5.07;3.42;;;;;;;10.74;90.21;100474.03;5014529;28;20132;-79
2023/12/28 04:51:03;;;;;;;9.13;3.90;;;;;;;10.68;90.22;100468.63;5015304;28;20049;-79
2023/12/28 04:53:30;;;;;;;4.93;3.60;;;;;;;10.53;90.50;100461.38;5016053;28;20149;-79
2023/12/28 04:55:57;;;;;;;4.32;3.45;;;;;;;11.08;89.93;100484.38;5016476;28;20057;-79
2023/12/28 04:58:25;;;;;;;5.20;3.60;;;;;;;10.74;89.47;100463.56;5016687;28;20137;-78
2023/12/28 05:00:51;;;;;;;6.45;3.67;;;;;;;10.48;90.26;100479.34;5016919;28;20531;-78
2023/12/28 05:03:18;;;;;;;6.47;3.67;;;;;;;10.41;91.13;100490.59;5020159;28;20324;-78
2023/12/28 05:05:44;;;;;;;5.45;3.78;;;;;;;10.66;90.41;100476.63;5017587;28;20132;-78
2023/12/28 05:08:11;;;;;;;5.18;4.03;;;;;;;10.57;90.52;100488.06;5007822;28;20524;-78
2023/12/28 05:10:38;;;;;;;5.63;3.80;;;;;;;10.53;89.89;100481.50;5016949;28;20085;-79
2023/12/28 05:13:04;;;;;;;5.15;3.80;;;;;;;10.92;89.70;100490.41;5018118;28;20140;-80
2023/12/28 05:15:32;;;;;;;7.82;4.25;;;;;;;10.29;90.06;100490.91;5020022;28;20136;-81
2023/12/28 05:17:59;;;;;;;4.72;4.00;;;;;;;10.11;91.48;100503.22;5018887;28;20137;-81
2023/12/28 05:20:25;;;;;;;5.43;3.80;;;;;;;10.74;90.81;100505.44;5016011;28;20137;-80
2023/12/28 05:22:55;;;;;;;7.18;4.00;;;;;;;10.29;90.87;100508.41;5015983;28;20050;-80
2023/12/28 05:25:22;;;;;;;9.20;4.45;;;;;;;10.03;91.80;100513.63;5013300;28;20405;-79
2023/12/28 05:27:48;;;;;;;7.72;4.10;;;;;;;10.03;92.23;100521.47;5012821;28;20050;-79
2023/12/28 05:30:15;;;;;;;6.10;4.00;;;;;;;10.46;91.61;100515.31;5012849;28;20053;-78
2023/12/28 05:32:43;;;;;;;7.82;4.13;;;;;;;10.13;91.65;100516.94;5013696;28;20136;-79
2023/12/28 05:35:09;;;;;;;5.05;3.70;;;;;;;10.29;91.13;100511.84;5012619;28;20061;-79
2023/12/28 05:37:36;;;;;;;6.60;3.80;;;;;;;10.08;91.06;100500.91;5012110;28;20560;-79
2023/12/28 05:40:03;;;;;;;6.43;4.05;;;;;;;10.66;90.18;100502.78;5013537;28;20049;-79
2023/12/28 05:42:30;;;;;;;5.82;4.05;;;;;;;10.88;89.42;100503.97;5016395;28;20159;-81
2023/12/28 05:44:56;;;;;;;6.32;4.50;;;;;;;10.91;88.33;100507.09;5016393;28;20046;-80
2023/12/28 05:47:23;;;;;;;6.38;4.30;;;;;;;10.98;88.21;100512.50;5010797;28;20474;-80
2023/12/28 05:49:51;;;;;;;7.22;4.00;;;;;;;10.48;88.93;100523.00;5013030;28;20077;-80
2023/12/28 05:52:19;;;;;;;6.57;4.32;;;;;;;10.39;90.02;100532.66;5012306;28;20133;-81
2023/12/28 05:54:45;;;;;;;6.88;4.00;;;;;;;10.98;89.29;100534.28;5015305;28;20088;-81
2023/12/28 05:57:12;;;;;;;7.97;4.03;;;;;;;11.13;87.98;100526.63;5019528;28;20046;-79
2023/12/28 05:59:45;;;;;;;5.78;3.90;;;;;;;10.99;88.00;100529.84;5014929;28;20049;-79
2023/12/28 06:02:12;;;;;;;5.95;4.10;;;;;;;10.94;87.26;100519.88;5011029;28;20420;-79
2023/12/28 06:04:39;;;;;;;7.63;3.90;;;;;;;10.85;87.87;100527.88;5009486;28;20474;-79
2023/12/28 06:07:06;;;;;;;7.20;3.80;;;;;;;10.88;87.98;100533.59;5013931;28;20077;-80
2023/12/28 06:09:33;;;;;;;5.55;4.10;;;;;;;11.10;86.98;100532.16;5007667;28;20132;-79
2023/12/28 06:12:00;;;;;;;7.75;3.95;;;;;;;11.26;86.50;100532.19;5013436;28;20140;-79
2023/12/28 06:14:26;;;;;;;5.70;3.70;;;;;;;11.44;85.67;100523.34;5014387;28;20037;-79
2023/12/28 06:16:53;;;;;;;5.85;3.80;;;;;;;11.20;85.42;100518.94;5011899;28;20052;-78
2023/12/28 06:19:20;;;;;;;6.25;4.30;;;;;;;11.47;83.93;100510.72;5012941;28;20487;-79
2023/12/28 06:21:46;;;;;;;5.57;3.63;;;;;;;11.39;83.73;100509.91;5013854;28;20539;-79
2023/12/28 06:24:14;;;;;;;7.43;4.20;;;;;;;11.50;83.32;100518.25;5013934;28;20057;-78
2023/12/28 06:26:41;;;;;;;4.80;3.55;;;;;;;11.54;82.71;100509.09;5014288;28;20065;-79
2023/12/28 06:29:08;;;;;;;6.20;3.15;;;;;;;11.60;82.63;100521.53;5013509;28;20428;-79
2023/12/28 06:31:36;;;;;;;5.95;3.50;;;;;;;11.86;81.73;100513.50;5013493;28;20140;-79
2023/12/28 06:34:03;;;;;;;9.02;3.88;;;;;;;11.72;81.55;100506.28;5013336;28;20097;-78
2023/12/28 06:36:29;;;;;;;8.43;3.53;;;;;;;11.82;80.74;100500.88;5013906;28;20141;-79
2023/12/28 06:38:56;;;;;;;3.35;2.80;;;;;;;11.76;80.40;100506.78;5013449;28;20068;-80
2023/12/28 06:41:25;;;;;;;5.60;3.65;;;;;;;11.94;80.30;100516.09;5014283;28;20077;-80
2023/12/28 06:43:51;;;;;;;4.75;3.10;;;;;;;12.11;79.72;100508.19;5014383;28;20045;-79
2023/12/28 06:46:18;;;;;;;7.07;3.40;;;;;;;12.02;79.44;100511.81;5007501;28;20056;-79
2023/12/28 06:48:45;;;;;;;7.10;3.35;;;;;;;12.02;80.00;100517.88;5012893;28;20741;-80
2023/12/28 06:51:18;;;;;;;4.93;3.28;;;;;;;11.99;79.43;100505.09;5011830;28;20084;-78
2023/12/28 06:53:44;;;;;;;;;;;;;;;12.36;79.20;100514.16;5012090;28;20056;-78
2023/12/28 06:56:11;;;;;;;5.82;3.33;;;;;;;12.23;79.17;100507.66;5004165;28;20016;-79
2023/12/28 06:58:39;;;;;;;5.72;3.53;;;;;;;12.00;79.06;100504.13;5010281;28;20049;-78
2023/12/28 07:01:06;;;;;;;4.10;3.40;;;;;;;11.99;79.55;100517.41;5001746;28;20133;-78
2023/12/28 07:03:32;;;;;;;6.53;3.30;;;;;;;12.04;79.42;100513.28;5007409;28;20129;-79
2023/12/28 07:05:59;;;;;;;7.40;4.00;;;;;;;11.59;80.08;100511.22;5011633;28;20060;-79
2023/12/28 07:08:26;;;;;;;7.63;3.63;;;;;;;11.75;80.22;100521.69;5011297;28;20120;-78
2023/12/28 07:10:53;;;;;;;4.90;3.03;;;;;;;11.67;80.40;100520.88;5012068;28;20190;-78
2023/12/28 07:13:19;;;;;;;6.97;3.70;;;;;;;11.59;80.61;100522.53;5012675;28;20103;-78
2023/12/28 07:15:47;;;;;;;5.95;3.58;;;;;;;11.52;80.86;100524.16;5012069;28;20068;-78
2023/12/28 07:18:14;;;;;;;6.60;3.50;;;;;;;11.49;81.18;100529.72;5003836;28;20514;-79
2023/12/28 07:20:40;;;;;;;9.32;3.90;;;;;;;11.50;81.14;100526.13;5012513;28;20124;-79
2023/12/28 07:23:08;;;;;;;6.18;3.33;;;;;;;11.56;80.78;100528.09;5011295;28;20080;-78
2023/12/28 07:25:35;;;;;;;6.60;3.40;;;;;;;11.44;81.10;100534.63;5006409;28;20053;-79
2023/12/28 07:28:02;;;;;;;8.65;4.38;;;;;;;11.72;80.52;100531.69;5012579;28;20050;-78
2023/12/28 07:30:29;;;;;;;9.90;6.00;;;;;;;11.82;80.39;100537.59;5006365;28;20083;-78
2023/12/28 07:32:57;;;;;;;6.47;3.50;;;;;;;11.83;80.12;100528.72;5011874;28;20046;-79
2023/12/28 07:35:24;;;;;;;20.08;10.98;;;;;;;11.75;80.23;100545.28;5010271;28;20077;-78
2023/12/28 07:37:50;;;;;;;9.15;3.65;;;;;;;11.63;80.24;100550.03;5001540;28;20512;-78
2023/12/28 07:40:17;;;;;;;9.10;6.03;;;;;;;11.79;80.50;100564.97;5009487;28;20083;-79
2023/12/28 07:42:44;;;;;;;9.57;3.65;;;;;;;11.20;81.54;100568.69;5003191;28;20054;-79
2023/12/28 07:45:09;;;;;;;6.30;3.95;;;;;;;11.09;83.13;100595.19;5008096;28;20042;-79
2023/12/28 07:47:36;;;;;;;6.07;4.30;;;;;;;11.00;83.80;100580.41;5000127;28;20054;-78
2023/12/28 07:50:06;;;;;;;11.52;6.95;;;;;;;11.34;83.52;100591.63;5003785;28;20536;-79
2023/12/28 07:52:32;;;;;;;8.98;5.63;;;;;;;11.52;82.60;100584.44;5010630;28;20164;-80
2023/12/28 07:54:59;;;;;;;7.75;4.18;;;;;;;11.27;82.99;100593.25;5008383;28;20117;-79
2023/12/28 07:57:26;;;;;;;10.10;4.50;;;;;;;10.93;84.00;100594.16;5005147;28;20042;-79
2023/12/28 07:59:53;;;;;;;6.15;3.95;;;;;;;10.98;83.74;100588.44;5009082;28;20108;-79
2023/12/28 08:02:23;;;;;;;5.80;3.72;;;;;;;11.34;83.46;100585.59;5015057;28;20058;-80
2023/12/28 08:04:50;;;;;;;7.93;4.00;;;;;;;11.64;82.53;100587.56;5009250;28;20047;-81
2023/12/28 08:07:18;;;;;;;6.25;4.13;;;;;;;11.60;82.35;100586.25;5017180;28;20073;-79
2023/12/28 08:09:45;;;;;;;6.03;3.70;;;;;;;11.72;81.77;100591.97;5013709;28;20058;-79
2023/12/28 08:12:12;;;;;;;7.28;4.18;;;;;;;11.46;81.52;100595.56;5010716;28;20135;-80
2023/12/28 08:14:39;;;;;;;10.57;4.13;;;;;;;11.51;82.73;100610.78;5020611;28;20053;-80
2023/12/28 08:17:05;;;;;;;7.15;4.00;;;;;;;11.60;82.17;100610.66;5006959;28;20113;-79
2023/12/28 08:19:33;;;;;;;8.38;4.22;;;;;;;11.56;81.89;100614.56;5012785;28;20152;-80
2023/12/28 08:21:59;;;;;;;8.07;3.78;;;;;;;10.95;82.92;100620.97;5012761;28;20518;-79
2023/12/28 08:24:43;;;;;;;9.70;4.80;;;;;;;11.71;82.78;100627.03;5015006;28;20465;-80
2023/12/28 08:27:54;;;;;;;6.07;3.90;;;;;;;11.18;83.18;100634.31;5004739;28;20153;-82
2023/12/28 08:30:28;;;;;;;8.20;4.18;;;;;;;11.11;84.17;100624.66;4933289;29;20075;-79
2023/12/28 08:43:45;;;;;;;10.25;5.20;;;;;;;11.54;82.64;100586.88;4900560;29;20056;-81
2023/12/28 08:47:28;;;;;;;;;;;;;;;;;;;;;
2023/12/28 08:53:24;;;;;;;8.52;4.40;;;;;;;11.64;81.56;100588.38;4919386;29;20063;-81
2023/12/28 08:55:51;;;;;;;9.98;4.85;;;;;;;12.00;80.64;100609.03;4945648;29;20047;-82
2023/12/28 08:58:18;;;;;;;8.98;3.03;;;;;;;11.94;80.23;100593.94;5003562;28;20045;-81
2023/12/28 09:00:46;;;;;;;7.80;3.10;;;;;;;12.00;80.36;100614.25;5024719;28;20066;-78
2023/12/28 09:03:13;;;;;;;8.18;3.88;;;;;;;12.08;79.93;100606.38;5010341;28;20061;-80
2023/12/28 09:05:40;;;;;;;6.53;3.60;;;;;;;12.20;79.67;100612.94;5019582;28;20464;-80
2023/12/28 09:08:07;;;;;;;7.95;3.60;;;;;;;12.26;79.35;100608.84;5020103;28;20114;-79
2023/12/28 09:10:34;;;;;;;7.85;3.58;;;;;;;12.29;79.07;100604.03;5018342;28;20531;-79
2023/12/28 09:13:01;;;;;;;10.18;3.60;;;;;;;12.30;78.90;100594.38;5017426;28;20518;-80
2023/12/28 09:15:27;;;;;;;11.20;3.72;;;;;;;12.15;78.58;100596.06;5019571;28;20465;-79
2023/12/28 09:17:56;;;;;;;8.93;3.30;;;;;;;12.27;78.74;100598.16;5018991;28;20049;-80
2023/12/28 09:20:23;;;;;;;11.38;3.38;;;;;;;12.35;78.64;100605.19;5022216;28;20137;-80
2023/12/28 09:22:53;;;;;;;8.93;3.53;;;;;;;12.60;77.88;100598.88;5021992;28;20388;-80
2023/12/28 09:25:20;;;;;;;5.55;3.63;;;;;;;12.75;77.41;100601.63;5023417;28;20129;-80
2023/12/28 09:27:46;;;;;;;8.90;3.42;;;;;;;12.73;77.60;100610.66;5024258;28;20129;-79
2023/12/28 09:30:13;;;;;;;9.20;3.38;;;;;;;12.74;76.96;100597.34;5019238;28;20046;-80
2023/12/28 09:32:43;;;;;;;9.50;3.53;;;;;;;12.78;76.85;100598.63;5019283;28;20077;-79
2023/12/28 09:35:11;;;;;;;9.75;4.22;;;;;;;12.80;76.78;100607.16;5019081;28;20054;-80
2023/12/28 09:37:37;;;;;;;9.02;3.47;;;;;;;12.74;76.39;100591.28;5018351;28;20054;-81
2023/12/28 09:40:05;;;;;;;10.18;3.22;;;;;;;12.46;76.55;100598.75;5019055;28;20453;-81
2023/12/28 09:42:39;;;;;;;9.07;3.50;;;;;;;12.82;76.08;100602.53;5019716;28;20050;-81
2023/12/28 09:45:06;;;;;;;9.27;3.50;;;;;;;12.70;76.37;100600.50;5019559;28;20088;-81
2023/12/28 09:47:33;;;;;;;8.63;3.60;;;;;;;12.84;76.10;100613.69;5019099;28;20053;-81
2023/12/28 09:50:00;;;;;;;8.50;3.00;;;;;;;13.04;76.07;100613.28;5019068;28;20077;-81
2023/12/28 09:52:28;;;;;;;7.63;3.50;;;;;;;13.20;75.68;100605.34;5019587;28;20128;-81
2023/12/28 09:54:54;;;;;;;10.63;3.05;;;;;;;12.99;75.43;100607.72;5021664;28;20088;-81
2023/12/28 09:57:21;;;;;;;9.82;3.88;;;;;;;13.05;75.43;100609.66;5021079;28;20101;-79
2023/12/28 09:59:48;;;;;;;11.93;4.47;;;;;;;13.19;75.00;100604.53;5021253;28;20077;-80
2023/12/28 10:02:16;;;;;;;10.23;3.80;;;;;;;13.04;74.90;100593.09;5019696;28;20571;-80
2023/12/28 10:04:43;;;;;;;9.00;4.35;;;;;;;13.32;74.59;100588.16;5018921;28;20148;-81
2023/12/28 10:07:09;;;;;;;9.13;3.72;;;;;;;13.46;74.12;100586.59;5019397;28;20077;-82
2023/12/28 10:09:38;;;;;;;11.10;3.85;;;;;;;13.36;74.01;100571.06;5017909;28;20130;-82
2023/12/28 10:12:06;;;;;;;10.63;3.22;;;;;;;13.55;73.53;100570.59;5017834;28;20140;-81
2023/12/28 10:14:32;;;;;;;7.57;3.08;;;;;;;13.50;73.29;100551.91;5025098;28;20092;-81
2023/12/28 10:16:59;;;;;;;12.43;3.50;;;;;;;13.48;73.21;100553.06;5027407;28;20107;-81
2023/12/28 10:19:26;;;;;;;7.97;3.30;;;;;;;13.31;73.02;100539.22;5027404;28;20109;-81
2023/12/28 10:21:52;;;;;;;9.73;3.20;;;;;;;13.70;72.54;100546.16;5031910;28;20078;-81
2023/12/28 10:24:19;;;;;;;12.32;3.60;;;;;;;13.63;72.51;100547.88;5032318;28;20046;-81
2023/12/28 10:26:47;;;;;;;11.23;3.50;;;;;;;13.41;72.62;100542.44;5015985;28;20065;-81
2023/12/28 10:29:14;;;;;;;8.85;3.30;;;;;;;13.52;72.70;100544.66;5015033;28;20121;-82
2023/12/28 10:31:42;;;;;;;10.32;3.40;;;;;;;13.65;72.47;100540.63;5020491;28;20136;-82
2023/12/28 10:34:09;;;;;;;15.40;3.92;;;;;;;13.70;72.28;100541.72;5016239;28;20141;-80
2023/12/28 10:36:37;;;;;;;9.32;3.63;;;;;;;13.76;72.05;100534.91;5015770;28;20458;-81
2023/12/28 10:39:06;;;;;;;8.40;3.45;;;;;;;13.76;71.87;100540.97;5009302;28;20057;-81
2023/12/28 10:41:37;;;;;;;7.10;3.50;;;;;;;13.69;71.55;100539.28;5015365;28;20046;-81
2023/12/28 10:44:06;;;;;;;7.18;2.95;;;;;;;13.54;71.53;100536.59;5012574;28;20061;-81
2023/12/28 10:46:39;;;;;;;11.85;3.38;;;;;;;13.51;71.85;100537.75;5013523;28;20065;-81
2023/12/28 10:49:11;;;;;;;10.00;3.05;;;;;;;13.72;71.47;100549.41;5009760;28;20335;-81
2023/12/28 10:51:43;;;;;;;6.23;2.77;;;;;;;14.03;71.17;100547.47;5002761;28;20049;-81
2023/12/28 10:54:21;;;;;;;17.10;3.70;;;;;;;14.08;71.34;100552.19;5009623;28;20140;-80
2023/12/28 10:56:53;;;;;;;11.23;3.80;;;;;;;13.84;71.40;100547.97;5014242;28;20516;-80
2023/12/28 10:59:29;;;;;;;10.45;4.05;;;;;;;13.91;70.99;100549.72;5007453;28;20136;-82
2023/12/28 11:01:59;;;;;;;11.45;4.32;;;;;;;13.88;71.34;100546.63;5011520;28;20146;-80
2023/12/28 11:04:34;;;;;;;7.85;3.17;;;;;;;14.09;70.88;100536.22;5010676;28;20121;-80
2023/12/28 11:07:03;;;;;;;9.35;3.28;;;;;;;14.04;70.56;100537.75;5004799;28;20209;-81
2023/12/28 11:09:32;;;;;;;13.57;3.70;;;;;;;14.19;70.46;100542.00;5009460;28;20067;-81
2023/12/28 11:12:00;;;;;;;7.50;3.38;;;;;;;14.07;69.74;100522.44;5009258;28;20272;-80
2023/12/28 11:14:28;;;;;;;9.38;3.50;;;;;;;13.99;69.58;100506.72;5010790;28;20050;-80
2023/12/28 11:16:59;;;;;;;9.80;4.30;;;;;;;14.22;69.59;100533.75;5011391;28;20489;-80
2023/12/28 11:19:27;;;;;;;10.65;3.42;;;;;;;14.08;69.57;100521.44;5004326;28;20077;-81
2023/12/28 11:21:56;;;;;;;9.70;3.28;;;;;;;14.21;69.32;100524.22;5008877;28;20693;-79
2023/12/28 11:24:23;;;;;;;5.72;3.30;;;;;;;14.45;68.74;100515.25;5011471;28;20045;-81
2023/12/28 11:26:54;;;;;;;10.23;3.40;;;;;;;14.73;68.33;100525.09;5009548;28;20053;-79
2023/12/28 11:29:21;;;;;;;9.13;3.20;;;;;;;14.70;68.47;100518.38;5010506;28;20054;-79
2023/12/28 11:31:53;;;;;;;8.35;3.55;;;;;;;14.64;68.33;100519.16;5015919;28;20141;-80
2023/12/28 11:34:20;;;;;;;8.67;3.47;;;;;;;14.27;68.44;100497.19;5014269;28;20069;-79
2023/12/28 11:36:51;;;;;;;9.63;2.97;;;;;;;14.55;68.08;100517.63;5010265;28;20050;-81
2023/12/28 11:39:30;;;;;;;8.70;3.53;;;;;;;14.68;67.49;100496.69;5004167;28;20050;-79
2023/12/28 11:42:02;;;;;;;6.78;3.22;;;;;;;14.69;67.65;100511.47;5006482;28;20037;-80
2023/12/28 11:44:29;;;;;;;;;;;;;;;14.81;66.96;100498.66;5005271;28;20088;-80
2023/12/28 11:46:57;;;;;;;10.40;3.25;;;;;;;14.77;67.55;100502.66;5012326;28;20419;-80
2023/12/28 11:49:28;;;;;;;10.70;3.70;;;;;;;14.65;67.77;100477.84;5009462;28;20078;-80
2023/12/28 11:51:58;;;;;;;7.13;3.28;;;;;;;15.12;66.78;100493.09;5010223;28;20373;-81
2023/12/28 11:54:26;;;;;;;8.75;3.28;;;;;;;15.01;66.31;100489.13;5007145;28;20081;-81
2023/12/28 11:56:53;;;;;;;8.15;3.15;;;;;;;14.91;66.91;100484.16;5003485;28;20420;-81
2023/12/28 11:59:20;;;;;;;10.60;3.15;;;;;;;15.09;66.68;100488.19;4999656;28;20050;-81